createdAt,value
2022-09-18T00:00:07.886Z,4.53
2022-09-18T00:05:07.949Z,4.22
2022-09-18T00:10:07.655Z,4.28
2022-09-18T00:15:08.356Z,5.18
2022-09-18T00:20:08.045Z,3.03
2022-09-18T00:25:07.747Z,3.55
2022-09-18T00:30:08.469Z,5.80
2022-09-18T00:35:08.150Z,3.97
2022-09-18T00:40:07.895Z,5.65
2022-09-18T00:45:08.689Z,5.30
2022-09-18T00:50:08.391Z,6.07
2022-09-18T00:55:08.078Z,5.10
2022-09-18T01:00:07.797Z,5.68
2022-09-18T01:05:09.420Z,6.07
2022-09-18T01:10:18.124Z,0
2022-09-18T01:15:07.824Z,4.18
2022-09-18T01:20:08.520Z,9.45
2022-09-18T01:25:08.243Z,5.50
2022-09-18T01:30:07.930Z,10.63
2022-09-18T01:35:18.680Z,4.53
2022-09-18T01:40:07.803Z,5.38
2022-09-18T01:45:08.525Z,7.25
2022-09-18T01:50:08.248Z,4.53
2022-09-18T01:55:07.905Z,6.28
2022-09-18T02:00:08.614Z,6.47
2022-09-18T02:05:08.358Z,2.95
2022-09-18T02:10:08.086Z,3.97
2022-09-18T02:15:07.799Z,4.72
2022-09-18T02:20:08.477Z,2.38
2022-09-18T02:25:08.173Z,3.88
2022-09-18T02:30:07.882Z,8.07
2022-09-18T02:35:08.567Z,2.53
2022-09-18T02:40:08.285Z,6.40
2022-09-18T02:45:08.091Z,4.45
2022-09-18T02:50:07.811Z,5.13
2022-09-18T02:55:08.560Z,4.40
2022-09-18T03:00:08.288Z,3.47
2022-09-18T03:05:07.994Z,5.65
2022-09-18T03:10:07.675Z,6.95
2022-09-18T03:15:08.364Z,8.68
2022-09-18T03:20:08.071Z,3.70
2022-09-18T03:25:07.755Z,6.22
2022-09-18T03:30:08.442Z,5.32
2022-09-18T03:35:08.110Z,6.00
2022-09-18T03:40:07.881Z,3.03
2022-09-18T03:45:08.593Z,7.22
2022-09-18T03:50:08.316Z,3.55
2022-09-18T03:55:07.987Z,4.15
2022-09-18T04:00:07.658Z,2.92
2022-09-18T04:05:02.924Z,7.22
2022-09-18T04:10:01.969Z,4.32
2022-09-18T04:15:12.146Z,3.80
2022-09-18T04:20:11.963Z,2.90
2022-09-18T04:25:09.010Z,5.88
2022-09-18T04:30:02.225Z,4.28
2022-09-18T04:35:04.292Z,2.90
2022-09-18T04:40:03.465Z,4.57
2022-09-18T04:45:02.565Z,5.13
2022-09-18T04:50:03.934Z,4.57
2022-09-18T04:55:05.884Z,3.72
2022-09-18T05:00:03.744Z,3.60
2022-09-18T05:05:12.437Z,5.47
2022-09-18T05:10:04.076Z,2.67
2022-09-18T05:15:02.889Z,5.32
2022-09-18T05:20:04.074Z,2.95
2022-09-18T05:25:07.356Z,1.80
2022-09-18T05:30:03.403Z,2.80
2022-09-18T05:35:04.473Z,2.30
2022-09-18T05:40:02.518Z,3.05
2022-09-18T05:45:03.501Z,3.72
2022-09-18T05:50:06.681Z,5.15
2022-09-18T05:55:05.599Z,3.55
2022-09-18T06:00:07.397Z,3.67
2022-09-18T06:05:05.485Z,2.47
2022-09-18T06:10:02.762Z,4.30
2022-09-18T06:15:03.409Z,5.10
2022-09-18T06:20:02.823Z,2.53
2022-09-18T06:25:03.393Z,4.18
2022-09-18T06:30:04.294Z,3.08
2022-09-18T06:35:04.546Z,3.67
2022-09-18T06:40:03.490Z,3.00
2022-09-18T06:45:03.737Z,1.98
2022-09-18T06:50:04.217Z,3.92
2022-09-18T06:55:03.323Z,5.03
2022-09-18T07:00:08.423Z,4.40
2022-09-18T07:05:05.867Z,3.45
2022-09-18T07:10:08.843Z,1.70
2022-09-18T07:15:07.492Z,2.47
2022-09-18T07:20:04.125Z,2.40
2022-09-18T07:25:04.270Z,2.90
2022-09-18T07:30:07.605Z,1.63
2022-09-18T07:35:05.604Z,3.38
2022-09-18T07:40:02.970Z,1.15
2022-09-18T07:45:02.635Z,3.95
2022-09-18T07:50:05.256Z,2.60
2022-09-18T07:55:04.857Z,2.60
2022-09-18T08:00:06.213Z,4.15
2022-09-18T08:05:03.675Z,2.63
2022-09-18T08:10:06.000Z,1.08
2022-09-18T08:15:04.828Z,1.42
2022-09-18T08:20:04.107Z,1.73
2022-09-18T08:25:04.615Z,3.50
2022-09-18T08:30:03.474Z,3.72
2022-09-18T08:35:04.376Z,2.25
2022-09-18T08:40:12.091Z,2.17
2022-09-18T08:45:18.796Z,3.35
2022-09-18T08:50:06.139Z,2.28
2022-09-18T08:55:03.825Z,2.50
2022-09-18T09:00:04.277Z,3.50
2022-09-18T09:05:06.650Z,3.78
2022-09-18T09:10:04.567Z,3.90
2022-09-18T09:15:05.924Z,4.22
2022-09-18T09:20:06.045Z,2.42
2022-09-18T09:25:07.176Z,2.80
2022-09-18T09:30:03.846Z,3.67
2022-09-18T09:35:03.889Z,2.25
2022-09-18T09:40:03.280Z,2.65
2022-09-18T09:45:03.413Z,1.92
2022-09-18T09:50:04.310Z,3.80
2022-09-18T09:55:13.818Z,0
2022-09-18T10:00:03.917Z,1.15
2022-09-18T10:05:05.330Z,1.48
2022-09-18T10:10:03.533Z,2.75
2022-09-18T10:15:04.640Z,2.15
2022-09-18T10:20:03.997Z,2.28
2022-09-18T10:25:01.908Z,1.50
2022-09-18T10:30:04.103Z,1.88
2022-09-18T10:35:03.570Z,3.70
2022-09-18T10:40:03.531Z,2.80
2022-09-18T10:45:04.899Z,1.95
2022-09-18T10:50:04.281Z,1.90
2022-09-18T10:55:08.433Z,2.75
2022-09-18T11:00:02.407Z,1.52
2022-09-18T11:05:03.206Z,3.08
2022-09-18T11:10:04.167Z,1.55
2022-09-18T11:15:03.142Z,3.25
2022-09-18T11:20:06.500Z,1.05
2022-09-18T11:25:02.921Z,2.55
2022-09-18T11:30:04.238Z,2.28
2022-09-18T11:35:03.581Z,1.85
2022-09-18T11:40:05.437Z,3.17
2022-09-18T11:45:02.597Z,1.73
2022-09-18T11:50:03.930Z,2.60
2022-09-18T11:55:03.662Z,1.67
2022-09-18T12:00:03.917Z,3.75
2022-09-18T12:05:05.221Z,4.43
2022-09-18T12:10:01.049Z,1.83
2022-09-18T12:15:13.847Z,0
2022-09-18T12:20:03.106Z,4.97
2022-09-18T12:25:03.889Z,2.63
2022-09-18T12:30:02.070Z,1.17
2022-09-18T12:35:03.930Z,2.50
2022-09-18T12:40:02.337Z,1.45
2022-09-18T12:45:01.366Z,1.30
2022-09-18T12:50:02.334Z,1.23
2022-09-18T12:55:02.682Z,1.25
2022-09-18T13:00:03.569Z,1.92
2022-09-18T13:05:15.246Z,2.65
2022-09-18T13:10:02.950Z,1.50
2022-09-18T13:15:12.222Z,1.42
2022-09-18T13:20:02.888Z,1.13
2022-09-18T13:25:05.946Z,1.80
2022-09-18T13:30:03.429Z,0.63
2022-09-18T13:35:04.090Z,1.20
2022-09-18T13:40:10.688Z,1.65
2022-09-18T13:45:06.620Z,0.82
2022-09-18T13:50:05.262Z,1.75
2022-09-18T13:55:03.864Z,1.00
2022-09-18T14:00:04.069Z,1.23
2022-09-18T14:05:03.407Z,3.00
2022-09-18T14:10:05.195Z,2.20
2022-09-18T14:15:12.669Z,0
2022-09-18T14:20:06.248Z,1.77
2022-09-18T14:25:03.032Z,2.70
2022-09-18T14:30:01.994Z,3.03
2022-09-18T14:35:11.879Z,2.45
2022-09-18T14:40:07.665Z,1.83
2022-09-18T14:45:05.598Z,3.72
2022-09-18T14:50:03.813Z,2.58
2022-09-18T14:55:04.567Z,1.58
2022-09-18T15:00:04.285Z,1.80
2022-09-18T15:05:02.255Z,1.17
2022-09-18T15:10:04.754Z,1.20
2022-09-18T15:15:03.062Z,1.75
2022-09-18T15:20:03.151Z,3.05
2022-09-18T15:25:03.634Z,1.73
2022-09-18T15:30:03.324Z,1.60
2022-09-18T15:35:14.921Z,1.48
2022-09-18T15:40:08.489Z,3.08
2022-09-18T15:45:02.502Z,2.75
2022-09-18T15:50:03.215Z,1.30
2022-09-18T15:55:03.485Z,1.15
2022-09-18T16:00:02.833Z,1.75
2022-09-18T16:05:04.168Z,3.08
2022-09-18T16:10:03.587Z,2.13
2022-09-18T16:15:04.083Z,1.95
2022-09-18T16:20:03.634Z,4.53
2022-09-18T16:25:06.386Z,10.77
2022-09-18T16:30:03.984Z,2.95
2022-09-18T16:35:02.355Z,1.67
2022-09-18T16:40:06.892Z,1.35
2022-09-18T16:45:03.281Z,0.70
2022-09-18T16:50:03.329Z,0.73
2022-09-18T16:55:02.244Z,0.70
2022-09-18T17:00:03.542Z,0.90
2022-09-18T17:05:12.450Z,0.85
2022-09-18T17:10:04.878Z,0.65
2022-09-18T17:15:05.112Z,1.05
2022-09-18T17:20:02.505Z,1.95
2022-09-18T17:25:05.834Z,1.27
2022-09-18T17:30:04.843Z,1.10
2022-09-18T17:35:03.881Z,0.88
2022-09-18T17:40:03.516Z,1.00
2022-09-18T17:45:04.752Z,1.25
2022-09-18T17:50:02.791Z,2.67
2022-09-18T17:55:04.455Z,1.48
2022-09-18T18:00:07.652Z,1.33
2022-09-18T18:05:05.589Z,3.55
2022-09-18T18:10:10.141Z,1.52
2022-09-18T18:15:03.726Z,2.20
2022-09-18T18:20:05.280Z,3.63
2022-09-18T18:25:03.359Z,2.67
2022-09-18T18:30:03.944Z,3.65
2022-09-18T18:35:02.537Z,3.10
2022-09-18T18:40:06.117Z,3.38
2022-09-18T18:45:08.881Z,3.58
2022-09-18T18:50:06.049Z,2.88
2022-09-18T18:55:07.501Z,2.17
2022-09-18T19:00:04.049Z,3.13
2022-09-18T19:05:05.226Z,3.90
2022-09-18T19:10:02.415Z,2.45
2022-09-18T19:15:07.632Z,4.68
2022-09-18T19:20:02.898Z,3.58
2022-09-18T19:25:14.187Z,2.22
2022-09-18T19:30:02.247Z,2.03
2022-09-18T19:35:03.216Z,6.25
2022-09-18T19:40:04.679Z,2.35
2022-09-18T19:45:08.314Z,2.83
2022-09-18T19:50:03.373Z,1.67
2022-09-18T19:55:03.614Z,3.63
2022-09-18T20:00:09.040Z,4.40
2022-09-18T20:05:06.786Z,3.42
2022-09-18T20:10:19.600Z,3.15
2022-09-18T20:15:02.712Z,4.68
2022-09-18T20:20:08.537Z,4.68
2022-09-18T20:25:04.806Z,3.95
2022-09-18T20:30:04.762Z,7.38
2022-09-18T20:35:13.058Z,4.97
2022-09-18T20:40:05.576Z,5.82
2022-09-18T20:45:15.546Z,3.40
2022-09-18T20:50:05.501Z,4.85
2022-09-18T20:55:03.602Z,3.97
2022-09-18T21:00:03.989Z,5.65
2022-09-18T21:05:04.534Z,3.67
2022-09-18T21:10:13.851Z,4.88
2022-09-18T21:15:08.011Z,7.28
2022-09-18T21:20:03.716Z,3.38
2022-09-18T21:25:04.302Z,6.18
2022-09-18T21:30:13.178Z,3.47
2022-09-18T21:35:07.920Z,4.47
2022-09-18T21:40:08.691Z,4.13
2022-09-18T21:45:08.440Z,5.57
2022-09-18T21:50:08.139Z,4.40
2022-09-18T21:55:07.821Z,6.72
2022-09-18T22:00:08.573Z,5.72
2022-09-18T22:05:08.340Z,9.45
2022-09-18T22:10:08.043Z,6.40
2022-09-18T22:15:07.757Z,7.35
2022-09-18T22:20:08.475Z,8.05
2022-09-18T22:25:08.212Z,7.05
2022-09-18T22:30:07.909Z,5.60
2022-09-18T22:35:08.599Z,6.07
2022-09-18T22:40:08.423Z,3.40
2022-09-18T22:45:08.150Z,6.20
2022-09-18T22:50:07.888Z,7.47
2022-09-18T22:55:08.577Z,9.88
2022-09-18T23:01:00.809Z,6.07
2022-09-18T23:05:08.532Z,7.22
2022-09-18T23:10:07.977Z,6.25
2022-09-18T23:15:07.657Z,9.95
2022-09-18T23:20:08.351Z,8.55
2022-09-18T23:25:08.036Z,9.63
2022-09-18T23:30:07.733Z,8.50
2022-09-18T23:35:08.426Z,10.50
2022-09-18T23:40:08.162Z,7.57
2022-09-18T23:45:07.874Z,5.07
2022-09-18T23:50:08.606Z,6.18
2022-09-18T23:55:08.301Z,5.55
